ADDS METAR Data INFO
IDs: Format: Raw Decoded Include TAF

Data at: 0307 UTC 17 Jan 2018

METAR for:KOPF (Miami/Opa Locka Arpt, FL, US)
Text:KOPF 170253Z 36008KT 10SM CLR 18/12 A3025 RMK AO2 SLP245 T01780122 51008
Temperature: 17.8°C ( 64°F)
Dewpoint: 12.2°C ( 54°F) [RH = 70%]
Pressure (altimeter):30.25 inches Hg (1024.5 mb) [Sea level pressure: 1024.5 mb]
Winds:from the N (360 degrees) at 9 MPH (8 knots; 4.1 m/s)
Visibility:10 or more sm (16+ km)
Ceiling:at least 12,000 feet AGL
Clouds:sky clear below 12,000 feet AGL